KCMH

John Glenn Columbus International Airport

Columbus, Ohio, USA
METAR KCMH 212251Z 27011KT 10SM SCT030 SCT100 BKN250 26/19 A2981 RMK AO2 SLP089 T02560194
Observed Flight Rules
Aug-21 @ 22:51 UTC (54 minutes ago) Visual Flight Rules
Wind Visibility Clouds
270° at 11 knots 10 miles
  • Scattered at 3,000' AGL
  • Scattered at 10,000' AGL
  • Broken at 25,000' AGL
Temperatures Readings
Current 26°C / 79°F
Dewpoint 19°C / 66°F
Humidity 65%
Altimeter 29.81" Hg
Pressure 1008.9 hPa
Elevation 247
METAR KCMH 212251Z 27011KT 10SM SCT030 SCT100 BKN250 26/19 A2981 RMK AO2 SLP089 T02560194
Observed Flight Rules
Aug-21 @ 22:51 UTC
(54 minutes ago)
VFR
Wind Visibility
270° at 11 knots 10 miles
Clouds
  • Scattered at 3,000' AGL
  • Scattered at 10,000' AGL
  • Broken at 25,000' AGL
Temperature Dewpoint
26°C / 79°F 19°C / 66°F
Humidity Altimeter Pressure
65% 29.81" Hg 1008.9 hPa